Time;durP1;ratioP1;P1;durP2;ratioP2;P2;SDS_P1;SDS_P2;PMS_P1;PMS_P2;Temp;Humidity;BMP_temperature;BMP_pressure;BME280_temperature;BME280_humidity;BME280_pressure;Samples;Min_cycle;Max_cycle;Signal;HPM_P1;HPM_P2
2023/03/22 00:01:30;;;;;;;7.73;5.47;;;10.20;99.90;;;;;;5047470;28;20239;-40
2023/03/22 00:03:56;;;;;;;6.37;5.23;;;10.10;99.90;;;;;;5031101;28;20203;-40
2023/03/22 00:06:23;;;;;;;7.17;5.67;;;10.10;99.90;;;;;;5054487;28;20586;-41
2023/03/22 00:08:50;;;;;;;6.00;5.33;;;10.20;99.90;;;;;;5050703;28;20192;-41
2023/03/22 00:11:17;;;;;;;6.67;5.20;;;10.10;99.90;;;;;;5043042;28;20182;-40
2023/03/22 00:13:45;;;;;;;9.30;6.00;;;10.10;99.90;;;;;;5030466;28;20205;-40
2023/03/22 00:16:12;;;;;;;6.37;5.70;;;10.00;99.90;;;;;;5051507;28;20535;-42
2023/03/22 00:18:38;;;;;;;10.30;5.77;;;9.90;99.90;;;;;;5050821;28;20205;-40
2023/03/22 00:21:04;;;;;;;7.03;5.10;;;9.80;99.90;;;;;;5047193;28;20189;-42
2023/03/22 00:23:30;;;;;;;5.80;4.93;;;9.80;99.90;;;;;;5029391;28;20210;-43
2023/03/22 00:25:56;;;;;;;9.40;5.20;;;9.70;99.90;;;;;;5049956;28;20212;-41
2023/03/22 00:28:23;;;;;;;6.33;4.80;;;9.80;99.90;;;;;;5070141;28;20178;-40
2023/03/22 00:31:00;;;;;;;5.53;4.53;;;9.80;99.90;;;;;;5047844;28;20186;-42
2023/03/22 00:33:28;;;;;;;4.97;4.40;;;9.70;99.90;;;;;;5052647;28;20265;-41
2023/03/22 00:35:57;;;;;;;5.97;4.70;;;9.60;99.90;;;;;;5055183;28;20267;-42
2023/03/22 00:38:24;;;;;;;5.50;4.63;;;9.60;99.90;;;;;;5047243;28;20293;-41
2023/03/22 00:40:50;;;;;;;6.97;4.80;;;9.50;99.90;;;;;;5038875;28;20548;-42
2023/03/22 00:43:16;;;;;;;6.10;4.43;;;9.40;99.90;;;;;;5034349;28;20198;-42
2023/03/22 00:45:43;;;;;;;5.60;4.20;;;9.40;99.90;;;;;;5056632;28;20179;-42
2023/03/22 00:48:10;;;;;;;5.87;4.47;;;9.50;99.90;;;;;;5033450;28;20236;-40
2023/03/22 00:50:38;;;;;;;5.57;4.23;;;9.50;99.90;;;;;;5033108;28;20182;-42
2023/03/22 00:53:04;;;;;;;4.67;3.93;;;9.50;99.90;;;;;;5037081;28;20596;-43
2023/03/22 00:55:31;;;;;;;5.87;4.50;;;9.50;99.90;;;;;;5069729;28;20182;-42
2023/03/22 00:57:57;;;;;;;7.07;5.13;;;9.40;99.90;;;;;;5068606;28;20210;-42
2023/03/22 01:00:23;;;;;;;6.70;5.50;;;9.40;99.90;;;;;;5033104;28;20178;-42
2023/03/22 01:02:52;;;;;;;7.23;5.20;;;9.40;99.90;;;;;;5049734;28;20256;-40
2023/03/22 01:05:20;;;;;;;7.63;5.87;;;9.40;99.90;;;;;;5052319;28;20194;-42
2023/03/22 01:07:50;;;;;;;8.27;5.73;;;9.20;99.90;;;;;;5052914;28;20182;-42
2023/03/22 01:10:17;;;;;;;7.83;5.63;;;9.10;99.90;;;;;;5053635;28;20196;-42
2023/03/22 01:12:44;;;;;;;5.90;5.30;;;9.10;99.90;;;;;;5059217;28;20178;-42
2023/03/22 01:15:10;;;;;;;8.57;5.57;;;9.10;99.90;;;;;;5049418;28;20199;-42
2023/03/22 01:17:36;;;;;;;8.40;5.83;;;9.10;99.90;;;;;;5038438;28;20274;-42
2023/03/22 01:20:03;;;;;;;9.17;5.53;;;9.10;99.90;;;;;;5052787;28;20268;-42
2023/03/22 01:22:29;;;;;;;6.77;5.27;;;9.00;99.90;;;;;;5052252;28;20225;-42
2023/03/22 01:24:55;;;;;;;6.67;5.30;;;8.80;99.90;;;;;;5069259;28;20228;-42
2023/03/22 01:27:21;;;;;;;7.13;5.10;;;8.80;99.90;;;;;;5049693;28;20174;-42
2023/03/22 01:29:47;;;;;;;5.93;5.20;;;8.80;99.90;;;;;;5032790;28;20175;-42
2023/03/22 01:32:13;;;;;;;5.60;4.20;;;8.90;99.90;;;;;;5033648;28;20179;-43
2023/03/22 01:34:39;;;;;;;6.87;4.80;;;8.80;99.90;;;;;;5052757;28;20255;-42
2023/03/22 01:37:05;;;;;;;6.67;5.17;;;8.80;99.90;;;;;;5052481;28;20267;-43
2023/03/22 01:39:32;;;;;;;6.20;5.03;;;8.80;99.90;;;;;;5048004;28;20241;-42
2023/03/22 01:42:02;;;;;;;5.07;4.57;;;8.60;99.90;;;;;;5041960;28;20182;-42
2023/03/22 01:44:30;;;;;;;6.73;4.40;;;8.50;99.90;;;;;;5049369;28;20199;-41
2023/03/22 01:46:57;;;;;;;5.57;4.90;;;8.40;99.90;;;;;;5040817;28;20255;-42
2023/03/22 01:49:30;;;;;;;6.90;4.40;;;8.30;99.90;;;;;;5052189;28;20239;-42
2023/03/22 01:52:07;;;;;;;4.87;4.37;;;8.30;99.90;;;;;;5048788;28;20185;-43
2023/03/22 01:54:53;;;;;;;6.23;4.07;;;8.20;99.90;;;;;;5048540;28;20214;-42
2023/03/22 01:57:36;;;;;;;5.50;4.00;;;8.30;99.90;;;;;;5043638;28;20308;-43
2023/03/22 02:00:12;;;;;;;5.87;4.50;;;8.30;99.90;;;;;;5052090;28;20178;-43
2023/03/22 02:02:58;;;;;;;5.43;4.33;;;8.40;99.90;;;;;;5036941;28;20182;-39
2023/03/22 02:05:31;;;;;;;5.77;4.60;;;8.40;99.90;;;;;;5047281;28;20179;-41
2023/03/22 02:07:59;;;;;;;6.33;4.93;;;8.30;99.90;;;;;;5045605;28;20239;-43
2023/03/22 02:10:28;;;;;;;6.00;5.37;;;8.30;99.90;;;;;;5051923;28;20218;-42
2023/03/22 02:13:18;;;;;;;6.03;5.07;;;8.20;99.90;;;;;;5066424;28;20188;-42
2023/03/22 02:16:25;;;;;;;6.63;5.50;;;8.20;99.90;;;;;;5053498;28;20200;-42
2023/03/22 02:19:41;;;;;;;6.93;5.47;;;8.10;99.90;;;;;;5028207;28;20221;-41
2023/03/22 02:22:22;;;;;;;10.07;5.97;;;8.00;99.90;;;;;;5047901;28;20196;-42
2023/03/22 02:25:16;;;;;;;6.93;5.67;;;7.90;99.90;;;;;;5015670;28;20221;-42
2023/03/22 02:28:29;;;;;;;8.93;5.50;;;7.80;99.90;;;;;;5032980;28;20182;-42
2023/03/22 02:31:20;;;;;;;7.50;5.37;;;7.70;99.90;;;;;;4998480;28;20658;-42
2023/03/22 02:34:01;;;;;;;5.20;4.70;;;7.70;99.90;;;;;;5051068;28;20190;-36
2023/03/22 02:36:53;;;;;;;8.37;6.47;;;7.60;99.90;;;;;;5051139;28;20248;-41
2023/03/22 02:39:35;;;;;;;6.37;5.20;;;7.60;99.90;;;;;;5045174;28;20189;-42
2023/03/22 02:42:16;;;;;;;9.77;5.47;;;7.50;99.90;;;;;;5043707;28;20276;-42
2023/03/22 02:45:00;;;;;;;6.40;5.70;;;7.50;99.90;;;;;;5046749;28;20212;-42
2023/03/22 02:47:37;;;;;;;7.90;5.20;;;7.50;99.90;;;;;;5031330;28;20186;-43
2023/03/22 02:50:21;;;;;;;6.20;5.07;;;7.40;99.90;;;;;;5044529;28;20162;-43
2023/03/22 02:53:01;;;;;;;6.53;5.20;;;7.40;99.90;;;;;;5050896;28;20220;-43
2023/03/22 02:55:53;;;;;;;7.03;5.30;;;7.40;99.90;;;;;;5067413;28;20633;-43
2023/03/22 02:58:33;;;;;;;6.27;5.67;;;7.40;99.90;;;;;;5026534;28;20217;-43
2023/03/22 03:01:04;;;;;;;6.40;5.10;;;7.30;99.90;;;;;;5031128;28;20174;-42
2023/03/22 03:03:36;;;;;;;7.83;5.37;;;7.30;99.90;;;;;;5049477;28;20205;-42
2023/03/22 03:06:11;;;;;;;5.90;5.13;;;7.30;99.90;;;;;;5051880;28;20190;-42
2023/03/22 03:08:39;;;;;;;5.70;5.10;;;7.30;99.90;;;;;;5050053;28;20184;-42
2023/03/22 03:11:07;;;;;;;6.00;4.50;;;7.30;99.90;;;;;;5050539;28;20196;-42
2023/03/22 03:13:33;;;;;;;5.50;4.50;;;7.20;99.90;;;;;;5037176;28;20263;-42
2023/03/22 03:16:00;;;;;;;5.90;4.97;;;7.20;99.90;;;;;;5030796;28;20186;-42
2023/03/22 03:18:26;;;;;;;5.90;5.30;;;7.10;99.90;;;;;;5046737;28;20211;-42
2023/03/22 03:21:28;;;;;;;5.93;4.77;;;7.10;99.90;;;;;;5047228;28;20644;-41
2023/03/22 03:24:13;;;;;;;5.97;4.40;;;7.00;99.90;;;;;;5048867;28;20196;-42
2023/03/22 03:26:47;;;;;;;5.50;4.70;;;6.90;99.90;;;;;;5066400;28;20184;-42
2023/03/22 03:29:32;;;;;;;7.47;5.00;;;6.90;99.90;;;;;;5030571;28;20182;-42
2023/03/22 03:32:10;;;;;;;6.43;5.17;;;6.90;99.90;;;;;;5032269;28;20181;-42
2023/03/22 03:34:44;;;;;;;5.27;4.67;;;6.80;99.90;;;;;;5030165;28;20251;-43
2023/03/22 03:37:18;;;;;;;8.30;5.00;;;6.70;99.90;;;;;;5060227;28;20199;-42
2023/03/22 03:40:00;;;;;;;7.03;4.40;;;6.60;99.90;;;;;;5033819;28;20215;-40
2023/03/22 03:42:28;;;;;;;5.33;4.77;;;6.60;99.90;;;;;;5044094;28;20173;-43
2023/03/22 03:44:55;;;;;;;5.70;5.10;;;6.50;99.90;;;;;;5046335;28;20201;-42
2023/03/22 03:47:22;;;;;;;5.67;4.60;;;6.50;99.90;;;;;;5030194;28;20683;-42
2023/03/22 03:49:49;;;;;;;6.43;5.17;;;6.40;99.90;;;;;;5043238;28;20193;-42
2023/03/22 03:52:15;;;;;;;5.40;4.70;;;6.40;99.90;;;;;;5066790;28;20563;-43
2023/03/22 03:54:41;;;;;;;4.93;4.43;;;6.50;99.90;;;;;;5058222;28;20204;-43
2023/03/22 03:57:12;;;;;;;5.30;4.80;;;6.50;99.90;;;;;;5066638;28;20201;-43
2023/03/22 03:59:38;;;;;;;6.10;4.53;;;6.60;99.90;;;;;;5050675;28;20237;-42
2023/03/22 04:02:12;;;;;;;5.17;4.67;;;6.60;99.90;;;;;;5048514;28;20185;-42
2023/03/22 04:04:37;;;;;;;5.73;5.00;;;6.60;99.90;;;;;;5049378;28;20197;-43
2023/03/22 04:07:05;;;;;;;5.57;4.63;;;6.60;99.90;;;;;;5049620;28;20175;-42
2023/03/22 04:09:35;;;;;;;7.43;4.60;;;6.60;99.90;;;;;;5049814;28;20189;-43
2023/03/22 04:12:12;;;;;;;6.53;4.77;;;6.60;99.90;;;;;;5061268;28;20176;-42
2023/03/22 04:14:38;;;;;;;5.87;4.50;;;6.60;99.90;;;;;;5029491;28;20202;-43
2023/03/22 04:17:12;;;;;;;4.70;4.30;;;6.60;99.90;;;;;;5033182;28;20200;-43
2023/03/22 04:19:38;;;;;;;5.07;4.30;;;6.50;99.90;;;;;;5047168;28;20181;-43
2023/03/22 04:22:04;;;;;;;5.97;4.50;;;6.50;99.90;;;;;;5030335;28;20189;-42
2023/03/22 04:24:32;;;;;;;5.73;3.80;;;6.50;99.90;;;;;;5029335;28;20203;-42
2023/03/22 04:26:58;;;;;;;5.47;4.43;;;6.50;99.90;;;;;;5030267;28;20176;-43
2023/03/22 04:29:31;;;;;;;4.47;4.07;;;6.50;99.90;;;;;;5065679;28;20177;-43
2023/03/22 04:32:08;;;;;;;5.60;4.10;;;6.50;99.90;;;;;;5034448;28;20207;-42
2023/03/22 04:34:37;;;;;;;4.57;4.13;;;6.60;99.90;;;;;;5065222;28;20636;-42
2023/03/22 04:37:08;;;;;;;6.50;4.80;;;6.50;99.90;;;;;;5056845;28;20204;-42
2023/03/22 04:39:57;;;;;;;4.97;4.43;;;6.40;99.90;;;;;;5044302;28;20259;-42
2023/03/22 04:42:29;;;;;;;5.23;4.17;;;6.40;99.90;;;;;;5044137;28;20265;-42
2023/03/22 04:45:06;;;;;;;5.17;4.67;;;6.30;99.90;;;;;;5044606;28;20196;-43
2023/03/22 04:47:34;;;;;;;5.93;4.43;;;6.10;99.90;;;;;;5046068;28;20181;-42
2023/03/22 04:50:05;;;;;;;5.30;4.53;;;6.00;99.90;;;;;;5029790;28;20185;-42
2023/03/22 04:52:34;;;;;;;5.90;4.77;;;6.00;99.90;;;;;;5029730;28;20191;-41
2023/03/22 04:55:01;;;;;;;6.40;4.77;;;5.80;99.90;;;;;;5029198;28;20204;-42
2023/03/22 04:57:26;;;;;;;6.77;4.83;;;5.70;99.90;;;;;;5046066;28;20207;-43
2023/03/22 04:59:52;;;;;;;7.47;4.90;;;5.70;99.90;;;;;;5029697;28;20178;-42
2023/03/22 05:02:18;;;;;;;6.90;4.60;;;5.60;99.90;;;;;;5029645;28;20175;-43
2023/03/22 05:04:46;;;;;;;5.13;4.63;;;5.50;99.90;;;;;;5055204;28;20209;-42
2023/03/22 05:07:30;;;;;;;9.00;4.47;;;5.40;99.90;;;;;;5058009;28;20271;-38
2023/03/22 05:09:58;;;;;;;5.03;4.53;;;5.40;99.90;;;;;;5060385;28;20191;-41
2023/03/22 05:12:24;;;;;;;4.73;4.23;;;5.40;99.90;;;;;;5039523;28;20323;-41
2023/03/22 05:15:10;;;;;;;5.90;4.40;;;5.30;99.90;;;;;;5037036;28;20206;-41
2023/03/22 05:17:37;;;;;;;5.03;4.53;;;5.30;99.90;;;;;;5051483;28;20751;-41
2023/03/22 05:20:08;;;;;;;5.73;4.63;;;5.20;99.90;;;;;;5049151;28;20325;-42
2023/03/22 05:22:39;;;;;;;5.23;4.50;;;5.30;99.90;;;;;;5035128;28;20186;-41
2023/03/22 05:25:08;;;;;;;6.43;4.60;;;5.40;99.90;;;;;;5046355;28;20546;-40
2023/03/22 05:27:37;;;;;;;8.90;5.50;;;5.30;99.90;;;;;;5052752;28;20182;-40
2023/03/22 05:30:31;;;;;;;6.23;5.30;;;5.30;99.90;;;;;;5046685;28;20180;-42
2023/03/22 05:33:04;;;;;;;6.67;4.67;;;5.40;99.90;;;;;;5067429;28;20179;-42
2023/03/22 05:35:37;;;;;;;6.67;4.67;;;5.50;99.90;;;;;;5031515;28;20191;-41
2023/03/22 05:38:04;;;;;;;6.57;4.73;;;5.50;99.90;;;;;;5057981;28;20206;-39
2023/03/22 05:40:33;;;;;;;5.17;4.67;;;5.50;99.90;;;;;;5051860;28;20189;-41
2023/03/22 05:42:59;;;;;;;4.90;4.40;;;5.60;99.90;;;;;;5046633;28;20187;-42
2023/03/22 05:45:26;;;;;;;6.03;4.50;;;5.60;99.90;;;;;;5052155;28;20179;-40
2023/03/22 05:48:11;;;;;;;8.73;4.47;;;5.60;99.90;;;;;;5035125;28;20268;-42
2023/03/22 05:50:37;;;;;;;5.90;4.20;;;5.60;99.90;;;;;;5039915;28;20276;-41
2023/03/22 05:53:03;;;;;;;4.57;4.03;;;5.60;99.90;;;;;;5059492;28;20188;-42
2023/03/22 05:55:43;;;;;;;5.53;4.40;;;5.50;99.90;;;;;;5051121;28;20196;-40
2023/03/22 05:58:10;;;;;;;5.37;4.27;;;5.50;99.90;;;;;;5032100;28;20202;-42
2023/03/22 06:00:38;;;;;;;6.20;4.43;;;5.40;99.90;;;;;;5031005;28;20206;-42
2023/03/22 06:03:19;;;;;;;8.00;4.50;;;5.50;99.90;;;;;;5047720;28;20200;-40
2023/03/22 06:05:54;;;;;;;8.70;3.90;;;5.50;99.90;;;;;;5046444;28;20266;-42
2023/03/22 06:08:32;;;;;;;6.50;4.10;;;5.60;99.90;;;;;;5032554;28;20178;-40
2023/03/22 06:10:58;;;;;;;5.13;4.47;;;5.50;99.90;;;;;;5023525;28;20185;-42
2023/03/22 06:13:25;;;;;;;9.30;5.27;;;5.60;99.90;;;;;;5041492;28;20206;-40
2023/03/22 06:15:51;;;;;;;7.70;5.10;;;5.50;99.90;;;;;;5049202;28;20174;-42
2023/03/22 06:18:21;;;;;;;5.27;4.77;;;5.50;99.90;;;;;;5061324;28;20203;-41
2023/03/22 06:20:55;;;;;;;6.27;4.73;;;5.50;99.90;;;;;;5035351;28;20266;-42
2023/03/22 06:23:22;;;;;;;5.70;4.90;;;5.50;99.90;;;;;;5067200;28;20200;-40
2023/03/22 06:25:48;;;;;;;7.33;5.67;;;5.60;99.90;;;;;;5061791;28;20176;-42
2023/03/22 06:28:16;;;;;;;5.13;4.63;;;5.60;99.90;;;;;;5031844;28;20190;-42
2023/03/22 06:30:49;;;;;;;6.87;5.00;;;5.70;99.90;;;;;;5048290;28;20573;-39
2023/03/22 06:33:24;;;;;;;6.47;5.80;;;5.80;99.90;;;;;;5043755;28;20199;-42
2023/03/22 06:35:57;;;;;;;6.67;5.30;;;5.90;99.90;;;;;;5053324;23;20211;-89
2023/03/22 06:38:32;;;;;;;7.03;4.90;;;6.10;99.90;;;;;;5032638;28;20207;-89
2023/03/22 06:40:58;;;;;;;9.07;5.30;;;6.20;99.90;;;;;;5062679;28;20226;-89
2023/03/22 06:43:24;;;;;;;7.10;5.33;;;6.30;99.90;;;;;;5044635;28;20231;-88
2023/03/22 06:45:56;;;;;;;7.87;5.53;;;6.60;99.90;;;;;;5049529;28;20204;-88
2023/03/22 06:48:29;;;;;;;7.73;5.20;;;6.60;99.90;;;;;;5032537;28;20181;-88
2023/03/22 06:51:02;;;;;;;5.67;4.80;;;6.80;99.90;;;;;;5032889;28;20539;-89
2023/03/22 06:53:33;;;;;;;8.03;5.03;;;6.90;99.90;;;;;;5032304;28;20185;-88
2023/03/22 06:55:59;;;;;;;7.90;5.40;;;7.00;99.90;;;;;;5052461;28;20207;-88
2023/03/22 06:58:29;;;;;;;6.20;4.77;;;6.90;99.90;;;;;;5055817;28;20688;-89
2023/03/22 07:00:57;;;;;;;5.80;4.80;;;7.10;99.90;;;;;;5036096;28;20171;-88
2023/03/22 07:03:23;;;;;;;9.07;5.07;;;7.30;99.90;;;;;;5052504;28;20179;-88
2023/03/22 07:06:02;;;;;;;6.30;4.47;;;7.40;99.90;;;;;;5052326;28;20223;-89
2023/03/22 07:08:31;;;;;;;5.97;4.27;;;7.60;99.90;;;;;;5037627;28;20173;-88
2023/03/22 07:10:57;;;;;;;8.87;4.80;;;7.80;99.90;;;;;;5057063;28;20185;-90
2023/03/22 07:13:23;;;;;;;8.20;4.10;;;8.00;99.90;;;;;;5040963;28;20187;-88
2023/03/22 07:16:00;;;;;;;5.27;3.50;;;8.20;99.90;;;;;;5036886;28;20189;-88
2023/03/22 07:18:39;;;;;;;5.40;3.70;;;8.30;99.90;;;;;;5052152;28;20201;-88
2023/03/22 07:21:05;;;;;;;5.63;3.77;;;8.50;99.90;;;;;;5052023;28;20182;-88
2023/03/22 07:23:33;;;;;;;7.07;4.13;;;8.60;99.90;;;;;;5052096;28;20228;-88
2023/03/22 07:26:05;;;;;;;4.77;4.27;;;8.70;99.90;;;;;;5051837;28;20198;-88
2023/03/22 07:28:33;;;;;;;6.00;4.20;;;8.80;99.90;;;;;;5068580;28;20209;-88
2023/03/22 07:31:06;;;;;;;4.67;4.23;;;9.00;99.90;;;;;;5068175;28;20181;-88
2023/03/22 07:33:52;;;;;;;6.20;4.30;;;9.10;99.90;;;;;;5065088;28;20210;-88
2023/03/22 07:36:22;;;;;;;5.23;3.90;;;9.30;99.90;;;;;;5050738;28;20209;-88
2023/03/22 07:38:50;;;;;;;10.47;3.73;;;9.40;99.90;;;;;;5050101;28;20257;-88
2023/03/22 07:41:22;;;;;;;5.17;2.90;;;9.40;99.90;;;;;;5058913;28;20175;-88
2023/03/22 07:44:14;;;;;;;4.67;2.93;;;9.50;99.90;;;;;;5034917;28;20237;-88
2023/03/22 07:46:45;;;;;;;4.07;3.13;;;9.70;99.90;;;;;;5032248;28;20182;-87
2023/03/22 07:49:26;;;;;;;4.40;3.23;;;9.80;99.90;;;;;;5042212;28;20210;-88
2023/03/22 07:52:23;;;;;;;4.73;3.30;;;9.90;99.90;;;;;;5019141;28;20189;-87
2023/03/22 07:54:50;;;;;;;4.87;2.80;;;10.00;99.90;;;;;;5031326;28;20203;-88
2023/03/22 07:57:58;;;;;;;3.00;2.70;;;10.10;99.90;;;;;;5038852;28;20205;-88
2023/03/22 08:00:30;;;;;;;4.80;2.70;;;10.20;99.90;;;;;;5036344;28;20182;-88
2023/03/22 08:03:16;;;;;;;3.80;2.60;;;10.30;99.90;;;;;;5066069;28;20193;-87
2023/03/22 08:06:06;;;;;;;5.73;2.60;;;10.40;99.90;;;;;;5037478;28;20247;-88
2023/03/22 08:08:35;;;;;;;4.37;3.23;;;10.60;99.90;;;;;;5051970;28;20173;-88
2023/03/22 08:11:06;;;;;;;4.67;3.20;;;10.80;99.90;;;;;;5066681;28;20268;-89
2023/03/22 08:13:33;;;;;;;3.80;2.87;;;10.90;99.90;;;;;;5051094;28;20556;-89
2023/03/22 08:15:59;;;;;;;3.30;2.70;;;11.00;99.90;;;;;;5050701;28;20227;-88
2023/03/22 08:18:25;;;;;;;2.33;2.07;;;11.20;99.90;;;;;;5050704;28;20235;-89
2023/03/22 08:20:55;;;;;;;3.87;1.80;;;11.30;99.90;;;;;;5051050;28;20183;-88
2023/03/22 08:23:22;;;;;;;3.00;2.10;;;11.50;99.90;;;;;;5051860;28;20172;-89
2023/03/22 08:26:11;;;;;;;2.37;2.07;;;11.60;99.90;;;;;;5028225;28;20195;-89
2023/03/22 08:28:37;;;;;;;2.90;2.20;;;11.80;99.90;;;;;;5052174;28;20190;-90
2023/03/22 08:31:12;;;;;;;3.97;2.00;;;12.00;99.90;;;;;;5051027;28;20210;-90
2023/03/22 08:33:38;;;;;;;2.73;1.73;;;12.20;99.90;;;;;;5051385;28;20211;-90
2023/03/22 08:36:10;;;;;;;1.90;1.70;;;12.30;99.90;;;;;;5050767;28;20208;-89
2023/03/22 08:38:43;;;;;;;1.97;1.60;;;12.50;99.90;;;;;;5050886;28;20227;-89
2023/03/22 08:41:11;;;;;;;5.47;1.90;;;12.70;99.90;;;;;;5050900;28;20173;-89
2023/03/22 08:43:38;;;;;;;4.40;1.80;;;12.90;99.90;;;;;;5043410;28;20187;-88
2023/03/22 08:46:04;;;;;;;1.80;1.47;;;13.00;99.90;;;;;;5050812;28;20203;-89
2023/03/22 08:48:30;;;;;;;3.43;1.90;;;13.20;99.90;;;;;;5053335;28;20235;-89
2023/03/22 08:51:07;;;;;;;2.33;1.60;;;13.30;99.90;;;;;;5055046;28;20174;-89
2023/03/22 08:53:51;;;;;;;1.40;1.20;;;13.50;99.90;;;;;;5054848;28;20170;-89
2023/03/22 08:56:38;;;;;;;2.57;1.50;;;13.60;99.90;;;;;;5048618;28;20187;-89
2023/03/22 08:59:30;;;;;;;3.03;1.40;;;13.80;99.90;;;;;;5047978;28;20186;-89
2023/03/22 09:02:14;;;;;;;1.87;1.30;;;13.90;99.90;;;;;;5055046;28;20177;-89
2023/03/22 09:04:41;;;;;;;2.03;1.43;;;14.10;99.90;;;;;;5054793;28;20198;-89
2023/03/22 09:07:07;;;;;;;2.37;1.20;;;14.20;99.90;;;;;;5055014;28;20178;-89
2023/03/22 09:09:34;;;;;;;1.40;1.17;;;14.40;99.90;;;;;;5054485;28;20174;-89
2023/03/22 09:12:00;;;;;;;2.23;1.10;;;14.50;99.90;;;;;;5045841;28;20182;-89
2023/03/22 09:14:26;;;;;;;3.90;1.13;;;14.60;99.90;;;;;;5053345;28;20233;-89
2023/03/22 09:16:53;;;;;;;2.10;1.10;;;14.70;99.90;;;;;;5054384;28;20182;-88
2023/03/22 09:19:19;;;;;;;1.67;1.00;;;14.60;99.90;;;;;;5054612;28;20181;-89
2023/03/22 09:21:45;;;;;;;2.03;1.20;;;14.70;99.90;;;;;;5053976;28;20184;-89
2023/03/22 09:24:20;;;;;;;2.03;1.30;;;14.80;99.90;;;;;;5043228;28;20199;-89
2023/03/22 09:26:50;;;;;;;1.70;1.10;;;14.80;99.90;;;;;;5051938;28;20179;-88
2023/03/22 09:29:18;;;;;;;0.97;0.93;;;14.90;99.90;;;;;;5041012;28;20171;-89
2023/03/22 09:31:47;;;;;;;1.70;1.10;;;15.00;99.90;;;;;;5036055;28;20178;-89
2023/03/22 09:34:28;;;;;;;1.70;1.20;;;15.10;99.90;;;;;;5069239;28;20187;-88
2023/03/22 09:36:57;;;;;;;1.23;1.10;;;15.30;99.90;;;;;;5052710;28;20239;-87
2023/03/22 09:39:27;;;;;;;2.13;1.10;;;15.50;99.90;;;;;;5070255;28;20209;-88
2023/03/22 09:41:59;;;;;;;1.80;1.20;;;15.40;99.90;;;;;;5070762;28;20178;-88
2023/03/22 09:44:36;;;;;;;0.90;0.83;;;15.50;99.90;;;;;;5034796;28;20171;-88
2023/03/22 09:47:12;;;;;;;2.00;1.00;;;15.60;99.90;;;;;;5034337;28;20179;-88
2023/03/22 09:49:45;;;;;;;2.87;1.10;;;15.80;99.90;;;;;;5033935;28;20220;-88
2023/03/22 09:52:14;;;;;;;1.73;1.10;;;15.90;99.90;;;;;;5036174;28;20166;-88
2023/03/22 09:54:42;;;;;;;1.93;1.10;;;16.10;99.90;;;;;;5035848;28;20207;-88
2023/03/22 09:57:31;;;;;;;4.03;1.10;;;16.20;99.90;;;;;;5035357;28;20206;-88
2023/03/22 10:00:04;;;;;;;2.00;0.90;;;16.20;99.90;;;;;;5017692;28;20247;-88
2023/03/22 10:02:52;;;;;;;1.70;0.93;;;16.10;99.90;;;;;;5051684;28;20186;-88
2023/03/22 10:05:54;;;;;;;1.13;0.77;;;16.10;99.90;;;;;;5035166;28;20198;-88
2023/03/22 10:08:51;;;;;;;1.40;0.90;;;16.20;99.90;;;;;;5035000;28;20247;-88
2023/03/22 10:11:25;;;;;;;1.53;1.07;;;16.10;99.90;;;;;;5044737;28;20203;-88
2023/03/22 10:14:22;;;;;;;2.03;0.67;;;16.30;99.90;;;;;;5042559;28;20185;-88
2023/03/22 10:16:51;;;;;;;0.93;0.80;;;16.60;99.90;;;;;;5052153;28;20182;-89
2023/03/22 10:19:30;;;;;;;1.88;1.08;;;16.80;99.90;;;;;;5051576;28;20177;-68
2023/03/22 10:22:18;;;;;;;1.50;1.10;;;16.80;99.90;;;;;;5054915;28;20178;-88
2023/03/22 10:24:48;;;;;;;1.10;1.00;;;16.70;99.90;;;;;;5055364;28;20190;-88
2023/03/22 10:27:18;;;;;;;1.52;1.08;;;16.90;99.90;;;;;;5054803;28;20228;-88
2023/03/22 10:30:20;;;;;;;1.20;0.82;;;16.80;99.90;;;;;;5054783;28;20264;-88
2023/03/22 10:33:01;;;;;;;1.23;1.08;;;16.80;99.90;;;;;;5038092;28;20166;-88
2023/03/22 10:35:29;;;;;;;1.00;0.90;;;16.80;99.90;;;;;;5054316;28;20209;-88
2023/03/22 10:38:00;;;;;;;1.10;1.00;;;16.90;99.90;;;;;;5070857;28;20224;-88
2023/03/22 10:40:30;;;;;;;0.95;0.80;;;17.00;99.90;;;;;;5052434;28;20194;-88
2023/03/22 10:43:02;;;;;;;3.17;0.80;;;17.20;99.90;;;;;;5053194;28;20194;-88
2023/03/22 10:45:30;;;;;;;1.67;0.90;;;17.40;99.90;;;;;;5039970;28;20221;-88
2023/03/22 10:48:06;;;;;;;1.23;0.90;;;17.60;99.90;;;;;;5051525;28;20177;-88
2023/03/22 10:50:39;;;;;;;1.05;0.93;;;17.60;99.90;;;;;;5054728;28;20197;-89
2023/03/22 10:53:13;;;;;;;0.80;0.80;;;17.70;99.90;;;;;;5055336;28;20178;-88
2023/03/22 10:55:42;;;;;;;1.85;1.00;;;17.80;99.90;;;;;;5066247;28;20201;-88
2023/03/22 10:58:17;;;;;;;0.75;0.70;;;17.90;99.90;;;;;;5069709;28;20218;-88
2023/03/22 11:00:55;;;;;;;1.00;0.90;;;17.90;99.90;;;;;;5053240;28;20185;-88
2023/03/22 11:03:43;;;;;;;2.05;0.90;;;18.00;99.90;;;;;;5053950;28;20177;-88
2023/03/22 11:06:25;;;;;;;0.80;0.80;;;18.00;99.90;;;;;;5037530;28;20202;-88
2023/03/22 11:08:56;;;;;;;1.10;0.70;;;18.10;99.90;;;;;;5070735;28;20243;-88
2023/03/22 11:11:33;;;;;;;2.85;1.27;;;18.20;99.90;;;;;;5068637;28;20178;-88
2023/03/22 11:14:20;;;;;;;2.35;1.20;;;18.10;99.90;;;;;;5044263;28;20252;-88
2023/03/22 11:16:58;;;;;;;1.35;1.13;;;18.20;99.90;;;;;;5034103;28;20213;-88
2023/03/22 11:19:54;;;;;;;1.08;0.80;;;18.10;99.90;;;;;;5017692;28;20198;-89
2023/03/22 11:22:23;;;;;;;1.77;0.80;;;18.00;99.90;;;;;;5060093;28;20216;-88
2023/03/22 11:25:40;;;;;;;0.93;0.93;;;18.10;99.90;;;;;;5054315;28;20267;-88
2023/03/22 11:28:49;;;;;;;0.73;0.70;;;18.20;99.90;;;;;;5040961;28;20239;-88
2023/03/22 11:31:51;;;;;;;0.75;0.70;;;18.30;99.90;;;;;;5036949;28;20190;-89
2023/03/22 11:34:20;;;;;;;1.15;0.95;;;18.50;99.90;;;;;;5049028;28;20193;-89
2023/03/22 11:36:53;;;;;;;1.70;1.20;;;18.60;99.90;;;;;;5049446;28;20178;-89
2023/03/22 11:39:23;;;;;;;1.13;0.95;;;18.60;99.90;;;;;;5068089;28;20189;-89
2023/03/22 11:41:51;;;;;;;0.98;0.90;;;18.60;99.90;;;;;;5064507;28;20201;-89
2023/03/22 11:44:21;;;;;;;1.08;0.85;;;18.70;99.90;;;;;;5059315;28;20174;-89
2023/03/22 11:46:51;;;;;;;2.40;0.90;;;18.60;99.90;;;;;;5044531;28;20205;-89
2023/03/22 11:49:18;;;;;;;2.92;0.90;;;18.60;99.90;;;;;;5035912;28;20179;-89
2023/03/22 11:51:44;;;;;;;1.60;1.10;;;18.50;99.90;;;;;;5034092;28;20257;-89
2023/03/22 11:54:23;;;;;;;1.40;0.80;;;18.50;99.90;;;;;;5050050;28;20186;-89
2023/03/22 11:56:49;;;;;;;1.13;0.70;;;18.60;99.90;;;;;;5034298;28;20163;-89
2023/03/22 11:59:25;;;;;;;1.98;0.70;;;18.70;99.90;;;;;;5041539;28;20175;-89
2023/03/22 12:01:57;;;;;;;1.75;0.73;;;18.80;99.90;;;;;;5067117;28;20212;-89
2023/03/22 12:04:26;;;;;;;1.38;0.98;;;18.90;99.90;;;;;;5034159;28;20283;-89
2023/03/22 12:06:59;;;;;;;1.45;0.90;;;19.00;99.90;;;;;;5041082;28;20173;-89
2023/03/22 12:09:41;;;;;;;1.48;0.80;;;19.10;99.90;;;;;;5050444;28;20254;-89
2023/03/22 12:12:18;;;;;;;1.27;0.70;;;19.30;99.90;;;;;;5048532;28;20185;-89
2023/03/22 12:15:15;;;;;;;1.67;0.82;;;19.40;99.90;;;;;;5035218;28;20197;-89
2023/03/22 12:17:46;;;;;;;1.15;0.82;;;19.40;99.90;;;;;;5054431;28;20289;-89
2023/03/22 12:20:36;;;;;;;2.10;0.85;;;19.30;99.90;;;;;;5035545;28;20178;-88
2023/03/22 12:23:17;;;;;;;1.65;0.90;;;19.30;99.90;;;;;;5042252;28;20171;-89
2023/03/22 12:26:02;;;;;;;0.93;0.80;;;19.50;99.90;;;;;;5042704;28;20204;-89
2023/03/22 12:28:54;;;;;;;0.70;0.70;;;19.50;99.90;;;;;;5034580;28;20192;-89
2023/03/22 12:31:37;;;;;;;1.48;0.70;;;19.70;99.90;;;;;;5053171;28;20178;-89
2023/03/22 12:34:16;;;;;;;2.15;1.10;;;19.80;99.90;;;;;;5036802;28;20187;-89
2023/03/22 12:37:05;;;;;;;0.80;0.80;;;19.90;99.90;;;;;;5034958;28;20198;-89
2023/03/22 12:39:39;;;;;;;1.77;0.82;;;20.00;99.90;;;;;;5031105;28;20178;-89
2023/03/22 12:42:22;;;;;;;1.80;0.98;;;20.00;99.90;;;;;;5040324;28;20197;-89
2023/03/22 12:44:51;;;;;;;4.20;0.90;;;20.10;99.90;;;;;;5047244;28;20229;-89
2023/03/22 12:47:35;;;;;;;0.80;0.73;;;20.10;99.90;;;;;;5015914;28;20261;-88
2023/03/22 12:50:12;;;;;;;1.08;0.70;;;20.00;99.90;;;;;;5030949;28;20175;-89
2023/03/22 12:52:45;;;;;;;1.50;0.90;;;20.00;99.90;;;;;;5057794;28;20197;-89
2023/03/22 12:55:33;;;;;;;1.90;1.05;;;20.00;99.90;;;;;;5067617;28;20240;-89
2023/03/22 12:58:00;;;;;;;2.20;1.13;;;20.10;99.90;;;;;;5067863;28;20197;-89
2023/03/22 13:00:33;;;;;;;0.90;0.70;;;20.30;99.90;;;;;;5050810;28;20182;-89
2023/03/22 13:03:05;;;;;;;1.95;0.65;;;20.30;99.90;;;;;;5050527;28;20182;-88
2023/03/22 13:05:33;;;;;;;0.95;0.70;;;20.30;99.90;;;;;;5045722;28;20202;-89
2023/03/22 13:08:02;;;;;;;0.75;0.70;;;20.20;99.90;;;;;;5066011;28;20182;-88
2023/03/22 13:10:28;;;;;;;0.60;0.60;;;20.10;99.90;;;;;;5050810;28;20178;-90
2023/03/22 13:13:11;;;;;;;0.85;0.70;;;20.10;99.90;;;;;;5052733;28;20178;-81
2023/03/22 13:15:40;;;;;;;1.63;0.80;;;19.90;99.90;;;;;;5050824;28;20288;-89
2023/03/22 13:18:36;;;;;;;0.70;0.70;;;19.90;99.90;;;;;;5050061;28;20241;-89
2023/03/22 13:21:20;;;;;;;1.20;0.85;;;20.10;99.90;;;;;;5050138;28;20228;-89
2023/03/22 13:24:04;;;;;;;0.68;0.68;;;20.10;99.90;;;;;;5067152;28;20174;-82
2023/03/22 13:26:51;;;;;;;0.68;0.68;;;20.10;99.90;;;;;;5050671;28;20196;-90
2023/03/22 13:29:25;;;;;;;0.80;0.80;;;20.10;99.90;;;;;;5048260;28;20261;-90